Time;durP1;ratioP1;P1;durP2;ratioP2;P2;SDS_P1;SDS_P2;PMS_P1;PMS_P2;Temp;Humidity;BMP_temperature;BMP_pressure;BME280_temperature;BME280_humidity;BME280_pressure;Samples;Min_cycle;Max_cycle;Signal;HPM_P1;HPM_P2
2020/12/25 00:01:20;;;;;;;15.20;9.90;;;;;;;5.09;100.00;100391.69;5042344;28;20240;-30
2020/12/25 00:04:06;;;;;;;12.87;9.13;;;;;;;5.09;100.00;100390.84;5042510;28;20250;-30
2020/12/25 00:06:52;;;;;;;15.10;9.13;;;;;;;4.98;100.00;100385.56;5042499;28;20208;-30
2020/12/25 00:09:38;;;;;;;14.70;9.60;;;;;;;4.93;100.00;100389.75;5043268;28;20205;-31
2020/12/25 00:12:25;;;;;;;12.83;8.47;;;;;;;5.00;100.00;100398.38;5042805;28;20220;-30
2020/12/25 00:15:14;;;;;;;12.93;8.00;;;;;;;4.96;100.00;100417.13;5043833;28;20197;-31
2020/12/25 00:18:00;;;;;;;10.57;8.13;;;;;;;4.94;100.00;100409.41;5041816;28;20375;-31
2020/12/25 00:20:48;;;;;;;12.07;8.10;;;;;;;4.73;100.00;100416.75;5042252;28;20229;-30
2020/12/25 00:23:35;;;;;;;11.03;7.47;;;;;;;4.72;100.00;100415.00;5042422;28;20892;-31
2020/12/25 00:26:25;;;;;;;9.57;7.00;;;;;;;4.81;100.00;100417.72;5045478;28;20251;-30
2020/12/25 00:29:11;;;;;;;6.30;5.67;;;;;;;4.62;100.00;100420.78;5042773;28;20262;-30
2020/12/25 00:31:58;;;;;;;6.47;5.80;;;;;;;4.83;100.00;100426.28;5042747;28;20193;-31
2020/12/25 00:34:43;;;;;;;7.17;5.47;;;;;;;4.80;100.00;100429.66;5042476;28;20204;-31
2020/12/25 00:37:30;;;;;;;6.50;5.60;;;;;;;4.79;100.00;100422.84;5041555;28;20211;-31
2020/12/25 00:40:16;;;;;;;7.57;5.23;;;;;;;4.70;100.00;100426.94;5044278;28;20208;-30
2020/12/25 00:43:02;;;;;;;7.03;5.73;;;;;;;4.86;100.00;100439.16;5042337;28;20596;-31
2020/12/25 00:45:50;;;;;;;8.40;5.60;;;;;;;4.82;100.00;100439.94;5042026;28;20211;-30
2020/12/25 00:48:37;;;;;;;10.57;5.67;;;;;;;4.88;100.00;100442.63;5042739;28;20271;-31
2020/12/25 00:51:23;;;;;;;9.13;5.70;;;;;;;4.98;100.00;100443.66;5041214;28;20212;-31
2020/12/25 00:54:10;;;;;;;7.33;5.97;;;;;;;5.04;100.00;100439.47;5040727;28;20724;-31
2020/12/25 00:56:55;;;;;;;7.90;6.20;;;;;;;4.90;100.00;100440.94;5041159;28;20262;-31
2020/12/25 00:59:42;;;;;;;8.73;5.50;;;;;;;4.79;100.00;100442.47;5047344;28;20640;-31
2020/12/25 01:02:29;;;;;;;8.13;5.80;;;;;;;4.81;100.00;100441.66;5040965;28;20235;-31
2020/12/25 01:05:16;;;;;;;7.60;6.00;;;;;;;4.89;100.00;100452.03;5041501;28;20248;-31
2020/12/25 01:08:02;;;;;;;10.30;5.97;;;;;;;4.83;100.00;100457.03;5042957;28;20278;-31
2020/12/25 01:10:48;;;;;;;13.00;6.63;;;;;;;4.88;100.00;100462.25;5040826;28;20260;-31
2020/12/25 01:13:35;;;;;;;10.73;6.80;;;;;;;4.84;100.00;100461.34;5039805;28;20201;-31
2020/12/25 01:16:22;;;;;;;8.60;6.23;;;;;;;4.90;100.00;100466.56;5041627;28;20331;-31
2020/12/25 01:19:09;;;;;;;9.07;5.97;;;;;;;4.96;100.00;100471.81;5040987;28;20320;-31
2020/12/25 01:21:55;;;;;;;10.70;5.93;;;;;;;4.79;100.00;100478.34;5040636;28;20630;-31
2020/12/25 01:24:41;;;;;;;12.23;6.20;;;;;;;4.73;100.00;100479.09;5042976;28;20255;-31
2020/12/25 01:27:28;;;;;;;12.63;6.63;;;;;;;4.61;100.00;100483.13;5039457;28;20243;-36
2020/12/25 01:30:14;;;;;;;11.30;6.33;;;;;;;4.43;100.00;100488.75;5042880;28;20202;-31
2020/12/25 01:33:00;;;;;;;9.73;5.70;;;;;;;4.37;100.00;100494.63;5042147;28;20207;-31
2020/12/25 01:35:46;;;;;;;6.17;5.03;;;;;;;4.32;100.00;100492.81;5040692;28;20200;-30
2020/12/25 01:38:34;;;;;;;8.97;5.33;;;;;;;4.54;100.00;100505.22;5040084;28;20320;-31
2020/12/25 01:41:20;;;;;;;6.47;3.77;;;;;;;4.01;100.00;100504.09;5039963;28;20261;-30
2020/12/25 01:44:06;;;;;;;6.90;4.00;;;;;;;4.11;100.00;100509.44;5040022;28;20254;-31
2020/12/25 01:46:52;;;;;;;6.97;4.03;;;;;;;4.11;100.00;100517.13;5040685;28;20217;-30
2020/12/25 01:49:42;;;;;;;6.83;3.97;;;;;;;4.02;100.00;100519.47;5041599;28;20299;-31
2020/12/25 01:52:28;;;;;;;6.77;3.63;;;;;;;3.91;100.00;100523.50;5039781;28;20551;-30
2020/12/25 01:55:16;;;;;;;9.60;3.43;;;;;;;4.09;100.00;100533.28;5039744;28;20207;-31
2020/12/25 01:58:03;;;;;;;6.33;3.70;;;;;;;4.05;100.00;100531.47;5040364;28;20199;-31
2020/12/25 02:00:51;;;;;;;7.90;4.00;;;;;;;4.01;100.00;100530.53;5040119;28;20307;-31
2020/12/25 02:03:38;;;;;;;5.27;3.60;;;;;;;3.83;100.00;100527.59;5039963;28;20295;-31
2020/12/25 02:06:24;;;;;;;6.60;4.17;;;;;;;3.91;100.00;100533.75;5040574;28;20202;-31
2020/12/25 02:09:11;;;;;;;6.97;3.87;;;;;;;4.00;100.00;100540.75;5039784;28;20202;-31
2020/12/25 02:12:02;;;;;;;6.23;3.80;;;;;;;3.97;100.00;100535.59;5040147;28;20288;-31
2020/12/25 02:14:48;;;;;;;5.63;3.93;;;;;;;3.79;100.00;100541.16;5039616;28;20476;-31
2020/12/25 02:17:35;;;;;;;5.17;4.00;;;;;;;3.70;100.00;100538.38;5040671;28;20209;-31
2020/12/25 02:20:21;;;;;;;5.60;4.13;;;;;;;3.55;100.00;100536.31;5039459;28;20691;-30
2020/12/25 02:23:07;;;;;;;4.90;4.33;;;;;;;3.70;100.00;100539.25;5042644;28;20206;-30
2020/12/25 02:25:56;;;;;;;5.53;4.73;;;;;;;3.72;100.00;100537.59;5038968;28;20205;-31
2020/12/25 02:28:41;;;;;;;9.50;4.60;;;;;;;3.65;100.00;100542.50;5044344;28;20212;-30
2020/12/25 02:31:28;;;;;;;8.63;5.10;;;;;;;3.52;100.00;100538.81;5041146;28;20283;-31
2020/12/25 02:34:14;;;;;;;9.27;4.40;;;;;;;3.47;100.00;100540.38;5040126;28;20197;-31
2020/12/25 02:37:00;;;;;;;7.63;5.37;;;;;;;3.47;100.00;100555.72;5039615;28;20197;-31
2020/12/25 02:39:48;;;;;;;11.20;4.87;;;;;;;3.54;100.00;100562.72;5039165;28;20559;-31
2020/12/25 02:42:35;;;;;;;5.70;5.07;;;;;;;3.53;100.00;100558.44;5039595;28;20501;-31
2020/12/25 02:45:21;;;;;;;13.90;6.30;;;;;;;3.59;100.00;100563.72;5042122;28;20592;-31
2020/12/25 02:48:06;;;;;;;8.10;5.10;;;;;;;3.65;100.00;100566.41;5038491;28;20281;-31
2020/12/25 02:50:53;;;;;;;7.23;5.50;;;;;;;3.42;100.00;100568.38;5038501;28;20194;-31
2020/12/25 02:53:39;;;;;;;9.37;4.83;;;;;;;3.46;100.00;100572.75;5040393;28;20205;-31
2020/12/25 02:56:25;;;;;;;7.70;4.93;;;;;;;3.27;100.00;100574.81;5038186;28;20474;-30
2020/12/25 02:59:11;;;;;;;9.77;4.80;;;;;;;3.39;100.00;100577.69;5038400;28;20323;-31
2020/12/25 03:01:57;;;;;;;9.10;4.63;;;;;;;3.67;100.00;100584.34;5039388;28;20247;-31
2020/12/25 03:04:43;;;;;;;8.57;5.17;;;;;;;3.74;100.00;100586.22;5040874;28;20196;-31
2020/12/25 03:07:30;;;;;;;7.50;5.03;;;;;;;3.86;100.00;100583.94;5039251;28;20244;-31
2020/12/25 03:10:16;;;;;;;8.03;4.63;;;;;;;3.64;100.00;100580.00;5038803;28;20210;-31
2020/12/25 03:13:03;;;;;;;6.10;4.37;;;;;;;3.89;100.00;100584.03;5038625;28;20623;-31
2020/12/25 03:15:49;;;;;;;9.13;4.80;;;;;;;3.65;100.00;100586.84;5038422;28;20272;-31
2020/12/25 03:18:35;;;;;;;7.73;5.00;;;;;;;3.75;100.00;100588.81;5038258;28;20224;-31
2020/12/25 03:21:22;;;;;;;7.90;5.03;;;;;;;3.46;100.00;100588.09;5038865;28;20201;-31
2020/12/25 03:24:08;;;;;;;8.50;4.57;;;;;;;3.42;100.00;100604.19;5041258;28;20232;-31
2020/12/25 03:26:54;;;;;;;9.27;4.33;;;;;;;3.49;100.00;100604.34;5038653;28;20265;-31
2020/12/25 03:29:42;;;;;;;10.07;4.93;;;;;;;3.20;100.00;100601.91;5038568;28;20192;-31
2020/12/25 03:32:27;;;;;;;12.30;4.80;;;;;;;3.28;100.00;100602.09;5037900;28;20204;-31
2020/12/25 03:35:13;;;;;;;8.17;5.13;;;;;;;3.23;100.00;100614.75;5039974;28;20196;-31
2020/12/25 03:37:59;;;;;;;12.43;5.67;;;;;;;3.06;100.00;100616.88;5037787;28;20260;-31
2020/12/25 03:40:45;;;;;;;6.27;5.33;;;;;;;3.38;100.00;100617.75;5039021;28;20245;-31
2020/12/25 03:43:31;;;;;;;10.33;5.20;;;;;;;3.24;100.00;100633.50;5038990;28;20201;-31
2020/12/25 03:46:19;;;;;;;8.17;5.27;;;;;;;2.89;100.00;100630.88;5040386;28;20275;-31
2020/12/25 03:49:06;;;;;;;16.97;6.00;;;;;;;3.08;100.00;100635.66;5038210;28;20205;-31
2020/12/25 03:51:52;;;;;;;11.87;5.60;;;;;;;3.18;100.00;100639.34;5038064;28;20209;-31
2020/12/25 03:54:38;;;;;;;10.37;5.93;;;;;;;3.25;100.00;100642.91;5039489;28;20903;-31
2020/12/25 03:57:24;;;;;;;13.57;5.23;;;;;;;3.21;100.00;100646.22;5037226;28;20200;-31
2020/12/25 04:00:10;;;;;;;12.27;5.37;;;;;;;3.35;100.00;100652.59;5040172;28;20228;-31
2020/12/25 04:02:57;;;;;;;17.20;6.00;;;;;;;3.44;100.00;100658.78;5042646;28;20229;-31
2020/12/25 04:05:44;;;;;;;9.43;5.10;;;;;;;3.45;100.00;100657.09;5038131;28;20201;-31
2020/12/25 04:08:29;;;;;;;10.70;4.40;;;;;;;3.42;100.00;100655.31;5038477;28;20299;-31
2020/12/25 04:11:15;;;;;;;10.60;4.50;;;;;;;3.42;100.00;100657.00;5037806;28;20224;-31
2020/12/25 04:14:01;;;;;;;11.97;3.83;;;;;;;2.87;100.00;100660.63;5037714;28;20221;-31
2020/12/25 04:16:47;;;;;;;8.43;3.77;;;;;;;3.00;100.00;100662.69;5037906;28;20197;-31
2020/12/25 04:19:35;;;;;;;8.77;3.70;;;;;;;2.99;100.00;100663.53;5037501;28;20225;-31
2020/12/25 04:22:21;;;;;;;10.63;3.50;;;;;;;3.16;100.00;100663.13;5045884;28;20201;-31
2020/12/25 04:25:07;;;;;;;9.40;3.97;;;;;;;3.20;100.00;100670.91;5037776;28;20241;-31
2020/12/25 04:27:54;;;;;;;12.27;3.93;;;;;;;3.34;100.00;100679.84;5041014;28;20490;-31
2020/12/25 04:30:39;;;;;;;12.03;3.30;;;;;;;3.29;100.00;100683.09;5041670;28;20256;-31
2020/12/25 04:33:26;;;;;;;6.53;2.83;;;;;;;3.50;100.00;100678.53;5041431;28;20280;-31
2020/12/25 04:36:13;;;;;;;11.17;2.90;;;;;;;3.24;100.00;100680.41;5042815;28;20202;-31
2020/12/25 04:38:59;;;;;;;6.33;2.40;;;;;;;3.44;100.00;100697.13;5040675;28;20229;-31
2020/12/25 04:41:46;;;;;;;8.90;3.10;;;;;;;3.40;100.00;100703.00;5045538;28;20229;-31
2020/12/25 04:44:32;;;;;;;4.47;2.50;;;;;;;3.20;100.00;100695.63;5042433;28;20717;-31
2020/12/25 04:47:18;;;;;;;12.60;2.60;;;;;;;2.84;100.00;100703.94;5041108;28;20353;-31
2020/12/25 04:50:05;;;;;;;7.53;2.77;;;;;;;3.11;100.00;100709.88;5042153;28;20231;-31
2020/12/25 04:52:53;;;;;;;8.67;2.67;;;;;;;3.12;100.00;100705.63;5044626;28;20197;-31
2020/12/25 04:55:38;;;;;;;7.53;2.90;;;;;;;2.55;100.00;100717.53;5045237;28;20200;-31
2020/12/25 04:58:24;;;;;;;11.77;3.20;;;;;;;2.34;100.00;100715.19;5041789;28;20221;-31
2020/12/25 05:01:11;;;;;;;8.43;2.90;;;;;;;2.34;100.00;100728.81;5041536;28;20200;-31
2020/12/25 05:03:57;;;;;;;12.23;3.10;;;;;;;2.12;100.00;100720.41;5040838;28;20197;-31
2020/12/25 05:06:43;;;;;;;7.97;2.73;;;;;;;2.18;100.00;100736.81;5040546;28;20477;-31
2020/12/25 05:09:30;;;;;;;13.40;3.37;;;;;;;2.38;100.00;100738.31;5040202;28;20250;-31
2020/12/25 05:12:16;;;;;;;9.40;3.67;;;;;;;1.93;100.00;100731.72;5041014;28;20209;-31
2020/12/25 05:15:06;;;;;;;7.17;2.60;;;;;;;2.06;100.00;100738.94;5040767;28;20479;-31
2020/12/25 05:17:56;;;;;;;10.40;2.93;;;;;;;2.13;100.00;100745.13;5042777;28;20544;-31
2020/12/25 05:20:48;;;;;;;8.10;3.17;;;;;;;2.05;100.00;100742.31;5040845;28;20229;-31
2020/12/25 05:23:37;;;;;;;10.87;3.40;;;;;;;1.97;100.00;100743.75;5042332;28;20232;-31
2020/12/25 05:26:24;;;;;;;9.17;2.90;;;;;;;1.78;100.00;100751.59;5040191;28;20311;-31
2020/12/25 05:29:10;;;;;;;12.83;2.67;;;;;;;1.83;100.00;100747.50;5040133;28;20497;-31
2020/12/25 05:31:57;;;;;;;7.97;3.40;;;;;;;1.88;100.00;100751.06;5041224;28;20216;-31
2020/12/25 05:34:43;;;;;;;7.53;3.57;;;;;;;1.98;100.00;100755.69;5040649;28;20295;-31
2020/12/25 05:37:35;;;;;;;6.17;2.80;;;;;;;1.93;100.00;100757.22;5045188;28;20200;-31
2020/12/25 05:40:21;;;;;;;9.47;3.03;;;;;;;1.87;100.00;100768.06;5039989;28;20228;-31
2020/12/25 05:43:09;;;;;;;11.60;3.30;;;;;;;1.80;100.00;100762.72;5040488;28;20201;-31
2020/12/25 05:45:55;;;;;;;8.33;3.00;;;;;;;1.78;100.00;100761.78;5040952;28;20653;-31
2020/12/25 05:48:41;;;;;;;7.40;2.97;;;;;;;1.82;100.00;100773.81;5040298;28;20205;-31
2020/12/25 05:51:27;;;;;;;7.33;2.80;;;;;;;1.68;100.00;100770.78;5044210;28;20200;-31
2020/12/25 05:54:19;;;;;;;8.67;2.80;;;;;;;1.76;100.00;100768.53;5059669;28;20197;-32
2020/12/25 05:57:08;;;;;;;10.63;3.23;;;;;;;1.62;100.00;100776.53;5064168;28;20291;-31
2020/12/25 05:59:56;;;;;;;8.57;2.90;;;;;;;1.87;100.00;100773.16;5059011;28;20568;-31
2020/12/25 06:02:44;;;;;;;12.87;3.40;;;;;;;1.60;100.00;100787.53;5059534;28;20228;-31
2020/12/25 06:05:31;;;;;;;5.63;2.70;;;;;;;1.66;100.00;100775.84;5059651;28;20198;-31
2020/12/25 06:08:19;;;;;;;9.40;2.77;;;;;;;1.72;100.00;100775.19;5059377;28;20447;-31
2020/12/25 06:11:05;;;;;;;7.83;3.13;;;;;;;1.71;100.00;100781.09;5059422;28;20475;-31
2020/12/25 06:13:52;;;;;;;10.47;3.63;;;;;;;1.65;100.00;100779.19;5063429;28;20875;-31
2020/12/25 06:16:45;;;;;;;11.27;3.87;;;;;;;1.46;100.00;100783.59;5058674;28;20200;-32
2020/12/25 06:19:43;;;;;;;14.53;4.40;;;;;;;1.31;100.00;100781.34;5059080;28;20754;-31
2020/12/25 06:22:34;;;;;;;18.17;3.83;;;;;;;1.49;100.00;100789.66;5059217;28;20605;-31
2020/12/25 06:25:22;;;;;;;12.70;3.70;;;;;;;1.59;100.00;100786.66;5058756;28;20487;-31
2020/12/25 06:28:08;;;;;;;9.87;3.80;;;;;;;1.72;100.00;100799.00;5058962;28;21037;-31
2020/12/25 06:30:54;;;;;;;8.30;2.93;;;;;;;1.80;100.00;100803.53;5058694;28;20447;-31
2020/12/25 06:33:41;;;;;;;9.97;3.40;;;;;;;1.63;100.00;100806.31;5059262;28;20204;-31
2020/12/25 06:36:28;;;;;;;10.00;3.60;;;;;;;1.77;100.00;100808.50;5059880;28;20204;-31
2020/12/25 06:39:15;;;;;;;13.57;4.30;;;;;;;1.52;100.00;100811.84;5058945;28;20483;-31
2020/12/25 06:42:01;;;;;;;10.60;3.30;;;;;;;1.39;100.00;100810.53;5058307;28;20197;-31
2020/12/25 06:44:49;;;;;;;10.33;3.63;;;;;;;1.54;100.00;100812.78;5061269;28;20219;-31
2020/12/25 06:47:37;;;;;;;13.97;3.70;;;;;;;1.88;100.00;100819.94;5057863;28;20439;-31
2020/12/25 06:50:27;;;;;;;13.70;5.33;;;;;;;1.83;100.00;100819.78;5058254;28;20279;-31
2020/12/25 06:53:33;;;;;;;10.73;4.50;;;;;;;1.85;100.00;100822.38;5060237;28;20300;-31
2020/12/25 06:56:20;;;;;;;17.70;4.43;;;;;;;1.64;100.00;100817.38;5058047;28;20320;-31
2020/12/25 06:59:14;;;;;;;23.70;5.77;;;;;;;1.80;100.00;100819.66;5057512;28;20351;-31
2020/12/25 07:02:01;;;;;;;13.27;4.30;;;;;;;2.17;100.00;100833.72;5058007;28;20342;-31
2020/12/25 07:04:48;;;;;;;11.90;4.80;;;;;;;2.29;100.00;100824.78;5058425;28;20205;-31
2020/12/25 07:07:36;;;;;;;13.40;4.67;;;;;;;1.54;100.00;100833.16;5057603;28;20192;-31
2020/12/25 07:10:27;;;;;;;12.00;5.13;;;;;;;1.78;100.00;100835.75;5039173;28;20325;-31
2020/12/25 07:13:24;;;;;;;12.80;4.33;;;;;;;2.16;100.00;100837.09;5038607;28;20293;-31
2020/12/25 07:16:15;;;;;;;9.33;4.17;;;;;;;2.05;100.00;100837.56;5038635;28;20205;-31
2020/12/25 07:19:12;;;;;;;10.33;4.30;;;;;;;2.38;100.00;100840.41;5038355;28;20359;-31
2020/12/25 07:22:05;;;;;;;18.87;5.37;;;;;;;2.21;100.00;100846.59;5038180;28;20201;-31
2020/12/25 07:25:09;;;;;;;9.83;3.90;;;;;;;1.84;100.00;100843.59;5039457;28;20237;-31
2020/12/25 07:28:03;;;;;;;12.17;4.87;;;;;;;1.98;100.00;100857.72;5038505;28;20205;-31
2020/12/25 07:30:52;;;;;;;15.53;5.53;;;;;;;1.97;100.00;100856.00;5039561;28;20615;-32
2020/12/25 07:33:45;;;;;;;8.57;4.73;;;;;;;2.36;100.00;100853.94;5038705;28;20216;-31
2020/12/25 07:36:41;;;;;;;12.53;5.60;;;;;;;2.06;100.00;100856.28;5038640;28;20610;-31
2020/12/25 07:39:36;;;;;;;16.20;5.87;;;;;;;2.21;100.00;100853.41;5037764;28;20638;-31
2020/12/25 07:42:32;;;;;;;15.87;5.77;;;;;;;2.38;100.00;100859.97;5037891;28;20545;-31
2020/12/25 07:45:40;;;;;;;16.53;6.37;;;;;;;2.44;100.00;100872.91;5037792;28;20212;-32
2020/12/25 07:48:38;;;;;;;14.10;5.70;;;;;;;2.37;100.00;100881.22;5037989;28;20204;-31
2020/12/25 07:51:37;;;;;;;12.50;4.60;;;;;;;2.19;100.00;100878.03;5038042;28;20475;-32
2020/12/25 07:54:34;;;;;;;15.80;4.93;;;;;;;2.45;100.00;100889.09;5038030;28;20205;-31
2020/12/25 07:57:32;;;;;;;9.20;3.93;;;;;;;2.53;100.00;100890.25;5037575;28;20719;-31
2020/12/25 08:00:35;;;;;;;13.57;3.97;;;;;;;2.49;100.00;100893.50;5039409;28;20319;-30
2020/12/25 08:03:22;;;;;;;8.13;3.80;;;;;;;2.67;100.00;100895.00;5044121;28;20236;-31
2020/12/25 08:06:10;;;;;;;19.33;5.87;;;;;;;2.70;100.00;100899.34;5041798;28;20201;-31
2020/12/25 08:09:07;;;;;;;19.37;7.80;;;;;;;2.79;100.00;100904.75;5043520;28;20232;-31
2020/12/25 08:11:54;;;;;;;21.33;7.53;;;;;;;2.23;100.00;100913.03;5023774;28;20222;-31
2020/12/25 08:14:43;;;;;;;21.03;6.20;;;;;;;2.63;100.00;100918.69;5031004;28;20205;-31
2020/12/25 08:17:29;;;;;;;10.00;5.70;;;;;;;2.48;100.00;100927.50;5041186;28;20201;-31
2020/12/25 08:20:15;;;;;;;12.33;4.90;;;;;;;2.40;100.00;100919.56;5041145;28;20330;-31
2020/12/25 08:23:29;;;;;;;14.90;5.13;;;;;;;2.39;100.00;100921.28;5041544;28;20650;-30
2020/12/25 08:26:31;;;;;;;11.37;5.17;;;;;;;2.77;100.00;100924.28;5041343;28;20351;-31
2020/12/25 08:29:16;;;;;;;10.63;5.40;;;;;;;2.84;100.00;100917.66;5042362;28;20255;-32
2020/12/25 08:32:08;;;;;;;11.30;5.13;;;;;;;3.20;100.00;100923.94;5043488;28;20213;-31
2020/12/25 08:35:08;;;;;;;16.57;5.73;;;;;;;3.24;100.00;100924.91;5041162;28;20300;-31
2020/12/25 08:37:58;;;;;;;13.70;6.37;;;;;;;3.28;100.00;100922.50;5040573;28;20328;-31
2020/12/25 08:40:47;;;;;;;13.10;6.23;;;;;;;3.24;100.00;100925.78;5041124;28;20224;-32
2020/12/25 08:43:33;;;;;;;13.90;6.50;;;;;;;3.33;100.00;100925.22;5041535;28;20188;-32
2020/12/25 08:46:22;;;;;;;12.97;6.10;;;;;;;3.74;100.00;100924.78;5041222;28;20201;-31
2020/12/25 08:49:10;;;;;;;22.03;11.63;;;;;;;3.45;100.00;100925.59;5041065;28;20196;-31
2020/12/25 08:51:57;;;;;;;24.63;15.73;;;;;;;3.25;100.00;100922.41;5040878;28;20591;-31
2020/12/25 08:54:42;;;;;;;18.00;11.20;;;;;;;3.22;100.00;100927.44;5043371;28;20216;-31
2020/12/25 08:57:30;;;;;;;15.20;9.20;;;;;;;3.05;100.00;100939.66;5043585;28;20246;-30
2020/12/25 09:00:16;;;;;;;14.50;7.43;;;;;;;2.68;100.00;100934.16;5041705;28;20224;-30
2020/12/25 09:03:02;;;;;;;21.97;8.13;;;;;;;2.58;100.00;100942.34;5041804;28;20274;-30
2020/12/25 09:05:49;;;;;;;15.50;6.90;;;;;;;2.43;100.00;100945.22;5042487;28;20189;-30
2020/12/25 09:08:36;;;;;;;13.70;6.83;;;;;;;2.49;100.00;100944.56;5042447;28;20205;-32
2020/12/25 09:11:25;;;;;;;14.03;7.67;;;;;;;2.39;100.00;100936.59;5040611;28;20651;-30
2020/12/25 09:14:11;;;;;;;16.73;7.37;;;;;;;2.33;100.00;100943.16;5039277;28;20193;-30
2020/12/25 09:16:57;;;;;;;13.67;6.73;;;;;;;2.25;100.00;100944.56;5041690;28;20201;-30
2020/12/25 09:19:43;;;;;;;11.80;6.50;;;;;;;2.26;100.00;100952.28;5041423;28;20249;-30
2020/12/25 09:22:31;;;;;;;14.77;6.20;;;;;;;2.45;100.00;100942.72;5041324;28;20212;-31
2020/12/25 09:25:17;;;;;;;14.77;5.67;;;;;;;2.50;100.00;100951.41;5058430;28;20247;-31
2020/12/25 09:28:04;;;;;;;6.90;5.47;;;;;;;2.59;100.00;100950.06;5061014;28;20251;-31
2020/12/25 09:30:50;;;;;;;13.03;6.13;;;;;;;2.05;100.00;100951.50;5060854;28;20311;-31
2020/12/25 09:33:36;;;;;;;12.70;6.53;;;;;;;2.23;100.00;100952.16;5050710;28;20283;-31
2020/12/25 09:36:23;;;;;;;16.40;6.80;;;;;;;2.30;100.00;100958.38;5048545;28;20298;-31
2020/12/25 09:39:10;;;;;;;10.90;6.03;;;;;;;2.59;100.00;100951.75;5054318;28;20208;-31
2020/12/25 09:41:56;;;;;;;14.70;6.30;;;;;;;2.63;100.00;100958.66;5063291;28;20698;-31
2020/12/25 09:44:45;;;;;;;15.57;5.80;;;;;;;2.90;100.00;100967.28;5063700;28;20263;-31
2020/12/25 09:47:31;;;;;;;9.67;6.23;;;;;;;3.13;100.00;100955.28;5060900;28;20203;-32
2020/12/25 09:50:18;;;;;;;12.57;4.77;;;;;;;4.21;100.00;100948.28;5063083;28;20200;-31
2020/12/25 09:53:04;;;;;;;10.70;5.17;;;;;;;4.26;100.00;100945.88;5060325;28;20540;-31
2020/12/25 09:55:51;;;;;;;8.27;4.00;;;;;;;4.34;100.00;100935.03;5058783;28;20267;-31
2020/12/25 09:58:37;;;;;;;5.50;3.33;;;;;;;4.38;100.00;100934.28;5059592;28;20482;-31
2020/12/25 10:01:24;;;;;;;6.70;4.87;;;;;;;4.20;100.00;100949.13;5059800;28;20276;-31
2020/12/25 10:04:09;;;;;;;6.30;3.33;;;;;;;4.96;100.00;100940.91;5060408;28;20292;-31
2020/12/25 10:06:56;;;;;;;9.13;4.20;;;;;;;4.80;100.00;100934.50;5060466;28;20194;-31
2020/12/25 10:09:45;;;;;;;8.47;3.67;;;;;;;5.74;100.00;100932.47;5059774;28;20203;-32
2020/12/25 10:12:32;;;;;;;7.30;3.77;;;;;;;6.09;100.00;100928.09;5059465;28;20209;-31
2020/12/25 10:15:18;;;;;;;6.53;3.40;;;;;;;7.64;100.00;100938.47;5059802;28;20205;-32
2020/12/25 10:18:04;;;;;;;5.60;3.60;;;;;;;7.52;100.00;100940.88;5060900;28;20196;-31
2020/12/25 10:20:50;;;;;;;39.47;5.23;;;;;;;5.99;100.00;100949.31;5040481;28;20690;-31
2020/12/25 10:23:36;;;;;;;9.07;5.60;;;;;;;5.74;100.00;100958.13;5039133;28;20209;-32
2020/12/25 10:26:23;;;;;;;6.33;3.73;;;;;;;3.95;100.00;100964.63;5038701;28;20224;-32
2020/12/25 10:29:10;;;;;;;10.67;3.93;;;;;;;4.05;100.00;100977.72;5040509;28;20206;-31
2020/12/25 10:31:56;;;;;;;10.03;5.53;;;;;;;3.65;100.00;100977.34;5044927;28;20209;-32
2020/12/25 10:34:42;;;;;;;6.77;3.70;;;;;;;3.74;100.00;100980.19;5058373;28;20202;-32
2020/12/25 10:37:31;;;;;;;9.83;4.60;;;;;;;3.16;100.00;100973.25;5058420;28;20205;-32
2020/12/25 10:40:21;;;;;;;7.60;4.73;;;;;;;3.68;100.00;100980.88;5062599;28;20295;-31
2020/12/25 10:43:08;;;;;;;8.47;4.50;;;;;;;3.29;100.00;100971.97;5058913;28;20198;-32
2020/12/25 10:45:56;;;;;;;4.13;3.63;;;;;;;3.75;100.00;100975.13;5059130;28;20196;-32
2020/12/25 10:48:41;;;;;;;6.57;3.47;;;;;;;3.44;100.00;100972.44;5058874;28;20239;-32
2020/12/25 10:51:28;;;;;;;6.07;4.20;;;;;;;3.27;100.00;100965.91;5060813;28;20591;-32
2020/12/25 10:54:14;;;;;;;6.90;3.60;;;;;;;3.46;100.00;100958.00;5059817;28;20196;-30
2020/12/25 10:57:00;;;;;;;7.73;3.73;;;;;;;3.95;100.00;100972.31;5039777;28;20256;-32
2020/12/25 10:59:50;;;;;;;7.73;4.10;;;;;;;4.18;100.00;100962.72;5041434;28;20221;-32
2020/12/25 11:02:37;;;;;;;7.93;4.23;;;;;;;4.24;100.00;100963.75;5041041;28;20527;-32
2020/12/25 11:05:24;;;;;;;9.60;4.40;;;;;;;4.41;100.00;100959.97;5047023;28;20266;-30
2020/12/25 11:08:13;;;;;;;7.57;5.30;;;;;;;4.68;100.00;100951.28;5059375;28;20255;-32
2020/12/25 11:11:06;;;;;;;9.77;6.60;;;;;;;4.42;100.00;100951.44;5058714;28;20202;-32
2020/12/25 11:13:57;;;;;;;15.40;6.13;;;;;;;4.65;100.00;100957.19;5058601;28;20206;-32
2020/12/25 11:16:43;;;;;;;10.10;5.27;;;;;;;4.68;100.00;100954.72;5058863;28;20223;-32
2020/12/25 11:19:34;;;;;;;7.37;4.00;;;;;;;4.47;100.00;100962.69;5058921;28;20272;-32
2020/12/25 11:22:21;;;;;;;7.60;4.37;;;;;;;4.65;100.00;100969.13;5059602;28;20586;-32
2020/12/25 11:25:09;;;;;;;6.87;4.00;;;;;;;4.69;100.00;100973.53;5058469;28;20333;-32
2020/12/25 11:27:55;;;;;;;10.07;4.17;;;;;;;4.72;100.00;100965.91;5058209;28;20299;-32
2020/12/25 11:30:41;;;;;;;6.43;4.80;;;;;;;4.84;100.00;100972.22;5057904;28;20211;-32
2020/12/25 11:33:28;;;;;;;11.67;4.77;;;;;;;3.71;100.00;100975.84;5057894;28;20197;-31
2020/12/25 11:36:17;;;;;;;10.10;5.70;;;;;;;3.48;100.00;100974.28;5061335;28;20299;-32
2020/12/25 11:39:05;;;;;;;7.13;5.33;;;;;;;3.19;100.00;100978.47;5063712;28;20203;-32
2020/12/25 11:41:51;;;;;;;13.77;5.53;;;;;;;3.36;100.00;100971.34;5062619;28;20189;-32
2020/12/25 11:44:37;;;;;;;8.50;5.37;;;;;;;4.00;100.00;100973.28;5062101;28;20506;-32
2020/12/25 11:47:25;;;;;;;8.27;5.07;;;;;;;3.63;100.00;100971.31;5043916;28;20205;-33
2020/12/25 11:50:14;;;;;;;10.33;6.07;;;;;;;3.85;100.00;100970.28;5045809;28;20225;-32
2020/12/25 11:53:01;;;;;;;14.67;7.20;;;;;;;4.15;100.00;100961.81;5041465;28;20592;-32
2020/12/25 11:55:48;;;;;;;15.57;5.80;;;;;;;4.37;100.00;100955.59;5041051;28;20305;-32
2020/12/25 11:58:33;;;;;;;12.70;6.10;;;;;;;4.52;100.00;100954.28;5041189;28;20256;-32
2020/12/25 12:01:19;;;;;;;9.63;5.17;;;;;;;4.52;100.00;100956.84;5041280;28;20514;-32
2020/12/25 12:04:09;;;;;;;12.93;5.93;;;;;;;4.27;100.00;100955.28;5041546;28;20601;-32
2020/12/25 12:06:57;;;;;;;10.77;5.40;;;;;;;5.05;100.00;100953.06;5040769;28;20302;-32
2020/12/25 12:09:47;;;;;;;10.20;5.37;;;;;;;4.29;100.00;100957.06;5041300;28;20223;-32
2020/12/25 12:12:33;;;;;;;10.57;5.07;;;;;;;4.46;100.00;100952.41;5042049;28;20208;-32
2020/12/25 12:15:19;;;;;;;11.50;4.73;;;;;;;5.21;100.00;100944.91;5040977;28;20208;-32
2020/12/25 12:18:07;;;;;;;7.77;4.13;;;;;;;4.63;100.00;100947.72;5042579;28;20587;-32
2020/12/25 12:20:53;;;;;;;8.87;4.83;;;;;;;4.43;100.00;100948.06;5041739;28;20228;-32
2020/12/25 12:23:40;;;;;;;8.87;5.10;;;;;;;4.76;100.00;100950.66;5040740;28;20490;-32
2020/12/25 12:26:29;;;;;;;9.10;5.50;;;;;;;5.00;100.00;100955.53;5040417;28;20613;-32
2020/12/25 12:29:16;;;;;;;13.10;6.03;;;;;;;4.43;100.00;100955.75;5040432;28;20196;-32
2020/12/25 12:32:02;;;;;;;9.60;6.20;;;;;;;3.73;100.00;100963.13;5040097;28;20226;-32
2020/12/25 12:34:47;;;;;;;7.90;6.23;;;;;;;4.34;100.00;100964.88;5042354;28;20203;-32
2020/12/25 12:37:34;;;;;;;14.50;6.47;;;;;;;3.91;100.00;100965.34;5040255;28;20593;-32
2020/12/25 12:40:20;;;;;;;8.70;6.33;;;;;;;3.88;100.00;100966.13;5040145;28;20231;-32
2020/12/25 12:43:07;;;;;;;17.83;6.60;;;;;;;4.08;100.00;100964.13;5040157;28;20246;-32
2020/12/25 12:45:53;;;;;;;13.20;6.43;;;;;;;4.19;100.00;100960.22;5040292;28;20481;-32
2020/12/25 12:48:45;;;;;;;16.93;6.23;;;;;;;4.22;100.00;100967.97;5039585;28;20257;-32
2020/12/25 12:51:43;;;;;;;9.50;6.10;;;;;;;4.24;100.00;100968.88;5059701;28;20207;-33
2020/12/25 12:54:35;;;;;;;9.43;4.93;;;;;;;4.03;100.00;100973.38;5047150;28;20200;-32
2020/12/25 12:57:23;;;;;;;14.37;6.33;;;;;;;3.91;100.00;100963.66;5060700;28;20202;-32